Time;durP1;ratioP1;P1;durP2;ratioP2;P2;SDS_P1;SDS_P2;PMS_P1;PMS_P2;Temp;Humidity;BMP_temperature;BMP_pressure;BME280_temperature;BME280_humidity;BME280_pressure;Samples;Min_cycle;Max_cycle;Signal;HPM_P1;HPM_P2
2022/05/11 00:01:14;;;;;;;3.85;3.33;;;22.60;48.90;;;;;;4994964;28;20422;-64
2022/05/11 00:03:40;;;;;;;4.38;3.30;;;22.60;48.90;;;;;;5010069;28;20406;-64
2022/05/11 00:06:07;;;;;;;3.72;3.28;;;22.60;48.90;;;;;;4998238;28;20391;-64
2022/05/11 00:08:32;;;;;;;4.07;3.50;;;22.60;48.90;;;;;;4994851;28;20398;-64
2022/05/11 00:10:58;;;;;;;3.80;3.30;;;22.60;48.90;;;;;;4994733;28;20430;-64
2022/05/11 00:13:24;;;;;;;3.50;3.20;;;22.60;48.90;;;;;;4994767;28;20418;-64
2022/05/11 00:15:50;;;;;;;3.80;3.40;;;22.60;48.80;;;;;;4994873;28;20430;-64
2022/05/11 00:18:15;;;;;;;3.70;3.30;;;22.60;48.90;;;;;;4993327;28;20866;-64
2022/05/11 00:20:41;;;;;;;3.53;3.10;;;22.60;48.80;;;;;;4994818;28;20399;-64
2022/05/11 00:23:06;;;;;;;3.65;3.13;;;22.50;48.70;;;;;;4995305;28;20426;-64
2022/05/11 00:25:32;;;;;;;3.87;3.30;;;22.60;48.70;;;;;;4994663;28;20398;-64
2022/05/11 00:27:59;;;;;;;4.72;3.45;;;22.50;48.80;;;;;;4994449;28;20390;-64
2022/05/11 00:30:26;;;;;;;3.67;3.10;;;22.50;48.70;;;;;;4994309;28;20418;-64
2022/05/11 00:32:54;;;;;;;3.53;3.22;;;22.50;48.70;;;;;;4994670;28;20854;-64
2022/05/11 00:35:20;;;;;;;3.60;3.30;;;22.50;48.70;;;;;;4994608;28;20430;-65
2022/05/11 00:37:46;;;;;;;3.70;3.40;;;22.50;48.70;;;;;;4994472;28;20425;-64
2022/05/11 00:40:12;;;;;;;3.80;3.40;;;22.50;48.70;;;;;;4994110;28;20402;-64
2022/05/11 00:42:38;;;;;;;4.10;3.67;;;22.50;48.70;;;;;;4994405;28;20890;-64
2022/05/11 00:45:05;;;;;;;3.67;3.30;;;22.50;48.70;;;;;;4994421;28;20433;-64
2022/05/11 00:47:48;;;;;;;3.60;3.10;;;22.50;48.60;;;;;;4994544;28;20386;-65
2022/05/11 00:50:18;;;;;;;3.80;3.40;;;22.50;48.60;;;;;;4993831;28;20509;-65
2022/05/11 00:53:00;;;;;;;4.00;3.35;;;22.50;48.60;;;;;;4994201;28;20977;-64
2022/05/11 00:55:32;;;;;;;3.97;3.42;;;22.50;48.60;;;;;;4993822;28;20406;-65
2022/05/11 00:58:06;;;;;;;3.83;3.45;;;22.50;48.60;;;;;;5008701;28;20481;-65
2022/05/11 01:00:32;;;;;;;4.85;3.58;;;22.50;48.60;;;;;;4993926;28;20430;-64
2022/05/11 01:03:07;;;;;;;3.80;3.20;;;22.50;48.60;;;;;;5009147;28;20423;-65
2022/05/11 01:05:33;;;;;;;3.88;3.20;;;22.50;48.60;;;;;;4994317;28;20394;-64
2022/05/11 01:07:59;;;;;;;3.33;2.90;;;22.50;48.50;;;;;;4993864;28;20445;-64
2022/05/11 01:10:27;;;;;;;3.50;3.13;;;22.40;48.50;;;;;;4993651;28;20886;-64
2022/05/11 01:12:58;;;;;;;3.83;3.30;;;22.50;48.60;;;;;;4993723;28;20403;-64
2022/05/11 01:15:26;;;;;;;3.55;3.25;;;22.40;48.50;;;;;;4993705;28;20452;-64
2022/05/11 01:17:52;;;;;;;3.40;3.10;;;22.40;48.40;;;;;;4993685;28;20386;-64
2022/05/11 01:20:20;;;;;;;3.00;2.80;;;22.40;48.50;;;;;;4993343;28;20407;-64
2022/05/11 01:23:12;;;;;;;3.65;3.28;;;22.40;48.50;;;;;;4993987;28;20470;-64
2022/05/11 01:25:38;;;;;;;3.55;3.10;;;22.40;48.50;;;;;;4993634;28;20783;-64
2022/05/11 01:28:12;;;;;;;3.70;3.30;;;22.40;48.50;;;;;;4993346;28;20391;-64
2022/05/11 01:30:48;;;;;;;4.07;3.30;;;22.40;48.50;;;;;;4993127;28;20484;-64
2022/05/11 01:33:22;;;;;;;3.58;3.25;;;22.40;48.50;;;;;;4993533;28;20397;-64
2022/05/11 01:36:03;;;;;;;4.20;3.10;;;22.40;48.50;;;;;;4993476;28;20398;-64
2022/05/11 01:38:38;;;;;;;3.53;3.20;;;22.40;48.40;;;;;;4993164;28;20394;-64
2022/05/11 01:41:04;;;;;;;3.63;3.00;;;22.40;48.50;;;;;;4993464;28;20453;-64
2022/05/11 01:43:33;;;;;;;3.30;3.00;;;22.40;48.40;;;;;;4993294;28;20393;-65
2022/05/11 01:45:59;;;;;;;3.70;3.30;;;22.40;48.50;;;;;;4993297;28;20422;-64
2022/05/11 01:48:25;;;;;;;3.55;3.17;;;22.40;48.40;;;;;;4992744;28;20858;-65
2022/05/11 01:50:51;;;;;;;3.42;3.10;;;22.40;48.40;;;;;;4993063;28;20771;-64
2022/05/11 01:53:17;;;;;;;3.83;3.30;;;22.40;48.50;;;;;;4993208;28;20455;-64
2022/05/11 01:55:43;;;;;;;3.90;3.20;;;22.30;48.40;;;;;;4992969;28;20398;-64
2022/05/11 01:58:11;;;;;;;4.03;3.17;;;22.30;48.40;;;;;;4992855;28;20461;-64
2022/05/11 02:00:39;;;;;;;4.37;3.33;;;22.30;48.40;;;;;;4993029;28;20399;-64
2022/05/11 02:03:05;;;;;;;3.70;3.30;;;22.30;48.40;;;;;;4992993;28;20414;-64
2022/05/11 02:08:16;;;;;;;3.75;3.22;;;22.30;48.40;;;;;;4992706;28;20408;-64
2022/05/11 02:10:42;;;;;;;4.25;3.40;;;22.30;48.40;;;;;;4992147;28;20440;-64
2022/05/11 02:13:08;;;;;;;3.55;3.25;;;22.30;48.30;;;;;;4992197;28;20841;-64
2022/05/11 02:15:36;;;;;;;3.50;3.20;;;22.30;48.30;;;;;;4992672;28;20386;-64
2022/05/11 02:18:01;;;;;;;3.78;3.30;;;22.30;48.30;;;;;;4992656;28;20514;-64
2022/05/11 02:20:27;;;;;;;4.20;3.10;;;22.30;48.30;;;;;;4992057;28;20510;-64
2022/05/11 02:22:53;;;;;;;4.15;3.30;;;22.30;48.30;;;;;;4992641;28;20394;-65
2022/05/11 02:25:19;;;;;;;3.80;3.40;;;22.30;48.30;;;;;;5007736;28;20391;-64
2022/05/11 02:27:47;;;;;;;4.05;3.65;;;22.30;48.30;;;;;;4992477;28;20398;-64
2022/05/11 02:30:21;;;;;;;3.50;3.20;;;22.30;48.30;;;;;;4991903;28;20457;-64
2022/05/11 02:32:47;;;;;;;3.90;3.40;;;22.30;48.30;;;;;;4992361;28;20886;-64
2022/05/11 02:35:13;;;;;;;3.92;3.30;;;22.30;48.30;;;;;;4992387;28;20421;-64
2022/05/11 02:37:41;;;;;;;3.83;3.40;;;22.30;48.30;;;;;;4992393;28;20437;-64
2022/05/11 02:40:07;;;;;;;3.60;3.30;;;22.30;48.30;;;;;;4992125;28;20390;-64
2022/05/11 02:42:33;;;;;;;4.10;3.70;;;22.30;48.30;;;;;;4991581;28;20875;-64
2022/05/11 02:44:58;;;;;;;3.83;3.30;;;22.30;48.20;;;;;;4992256;28;20403;-64
2022/05/11 02:47:24;;;;;;;3.50;3.20;;;22.30;48.30;;;;;;4992218;28;20395;-64
2022/05/11 02:49:50;;;;;;;3.80;3.22;;;22.30;48.30;;;;;;4992177;28;20422;-64
2022/05/11 02:52:17;;;;;;;4.13;3.40;;;22.30;48.30;;;;;;4991730;28;20398;-64
2022/05/11 02:54:46;;;;;;;3.83;3.50;;;22.20;48.20;;;;;;4992049;28;20470;-64
2022/05/11 02:57:12;;;;;;;3.60;3.30;;;22.20;48.20;;;;;;4992203;28;20386;-64
2022/05/11 02:59:38;;;;;;;3.58;3.20;;;22.20;48.20;;;;;;4992068;28;20391;-64
2022/05/11 03:02:04;;;;;;;3.42;3.10;;;22.20;48.20;;;;;;4992156;28;20406;-64
2022/05/11 03:04:30;;;;;;;3.40;3.00;;;22.20;48.20;;;;;;4991576;28;20390;-64
2022/05/11 03:06:56;;;;;;;7.03;3.00;;;22.20;48.10;;;;;;4992106;28;20399;-64
2022/05/11 03:09:21;;;;;;;6.10;3.28;;;22.20;48.90;;;;;;4991982;28;20406;-64
2022/05/11 03:11:47;;;;;;;4.80;3.17;;;22.20;49.30;;;;;;4991468;28;20494;-65
2022/05/11 03:14:13;;;;;;;4.28;3.13;;;22.20;50.30;;;;;;4991887;28;20846;-64
2022/05/11 03:16:39;;;;;;;7.40;3.47;;;22.30;51.70;;;;;;4991752;28;20395;-65
2022/05/11 03:19:05;;;;;;;4.60;3.30;;;22.30;52.70;;;;;;4991994;28;20398;-64
2022/05/11 03:21:32;;;;;;;4.88;3.70;;;22.40;53.30;;;;;;4991882;28;20394;-64
2022/05/11 03:23:58;;;;;;;5.05;3.70;;;22.40;53.00;;;;;;4991846;28;20449;-65
2022/05/11 03:26:24;;;;;;;7.50;3.53;;;22.40;52.00;;;;;;4991536;28;20428;-65
2022/05/11 03:28:50;;;;;;;7.53;3.60;;;22.30;53.30;;;;;;4991938;28;20393;-65
2022/05/11 03:31:16;;;;;;;10.37;4.00;;;22.40;53.70;;;;;;4990576;28;20433;-65
2022/05/11 03:36:26;;;;;;;6.78;3.88;;;22.50;54.00;;;;;;4991334;28;20402;-64
2022/05/11 03:38:52;;;;;;;8.57;3.80;;;22.50;53.90;;;;;;4991720;28;20391;-65
2022/05/11 03:41:18;;;;;;;6.25;3.60;;;22.50;54.60;;;;;;4991853;28;20398;-66
2022/05/11 03:43:44;;;;;;;10.07;3.60;;;22.60;54.10;;;;;;4991322;28;20394;-65
2022/05/11 03:46:09;;;;;;;6.97;3.55;;;22.50;53.50;;;;;;4991549;28;20758;-65
2022/05/11 03:48:37;;;;;;;7.53;3.70;;;22.50;53.50;;;;;;4991309;28;21271;-65
2022/05/11 03:51:06;;;;;;;8.52;4.10;;;22.60;53.70;;;;;;4990884;28;20978;-65
2022/05/11 03:53:34;;;;;;;5.38;3.40;;;22.60;52.80;;;;;;4994569;28;20390;-65
2022/05/11 03:56:00;;;;;;;7.85;3.60;;;22.50;52.80;;;;;;4995207;28;20453;-65
2022/05/11 03:58:25;;;;;;;7.28;3.65;;;22.50;52.10;;;;;;4994791;28;20394;-64
2022/05/11 04:00:51;;;;;;;6.55;3.45;;;22.50;52.30;;;;;;4995219;28;20386;-64
2022/05/11 04:03:17;;;;;;;8.80;3.67;;;22.50;51.90;;;;;;4995179;28;20394;-64
2022/05/11 04:05:43;;;;;;;9.15;3.63;;;22.40;51.80;;;;;;4995121;28;20393;-65
2022/05/11 04:08:09;;;;;;;9.13;3.90;;;22.50;52.00;;;;;;4995132;28;20395;-64
2022/05/11 04:10:35;;;;;;;8.95;3.72;;;22.40;52.00;;;;;;4994531;28;20418;-64
2022/05/11 04:13:03;;;;;;;9.48;3.60;;;22.50;51.80;;;;;;4994708;28;20414;-64
2022/05/11 04:15:29;;;;;;;10.80;4.13;;;22.40;51.20;;;;;;4994907;28;20403;-65
2022/05/11 04:17:55;;;;;;;10.00;3.77;;;22.40;50.90;;;;;;5009764;28;20390;-64
2022/05/11 04:20:21;;;;;;;10.00;4.05;;;22.40;50.60;;;;;;4994242;28;20405;-64
2022/05/11 04:22:47;;;;;;;10.85;3.90;;;22.30;49.90;;;;;;4994795;28;20893;-64
2022/05/11 04:25:15;;;;;;;9.60;3.97;;;22.30;49.20;;;;;;4994785;28;20449;-64
2022/05/11 04:27:45;;;;;;;6.88;3.85;;;22.30;49.20;;;;;;4994680;28;20406;-64
2022/05/11 04:30:16;;;;;;;8.55;3.58;;;22.30;49.10;;;;;;4994329;28;20449;-65
2022/05/11 04:32:42;;;;;;;10.15;3.70;;;22.30;49.10;;;;;;5011627;28;20447;-64
2022/05/11 04:35:09;;;;;;;6.85;3.70;;;22.30;49.00;;;;;;5014512;28;20381;-65
2022/05/11 04:37:35;;;;;;;9.93;3.60;;;22.30;49.00;;;;;;5014290;28;20404;-64
2022/05/11 04:40:00;;;;;;;6.75;3.40;;;22.30;48.90;;;;;;5014094;28;20401;-64
2022/05/11 04:42:26;;;;;;;5.28;3.53;;;22.30;49.10;;;;;;5013615;28;20483;-64
2022/05/11 04:44:55;;;;;;;5.80;3.50;;;22.30;49.10;;;;;;5014090;28;20380;-64
2022/05/11 04:47:21;;;;;;;4.72;3.40;;;22.30;49.10;;;;;;4992005;28;20408;-64
2022/05/11 04:49:51;;;;;;;7.05;3.60;;;22.30;49.10;;;;;;4987094;28;20497;-65
2022/05/11 04:52:17;;;;;;;4.75;3.30;;;22.30;49.10;;;;;;4987869;28;20898;-64
2022/05/11 04:54:45;;;;;;;6.50;3.40;;;22.30;48.90;;;;;;4988430;28;20401;-65
2022/05/11 04:57:11;;;;;;;8.68;3.72;;;22.30;48.90;;;;;;4986555;28;20404;-64
2022/05/11 04:59:40;;;;;;;8.27;3.60;;;22.30;49.10;;;;;;4994355;28;20386;-65
2022/05/11 05:02:12;;;;;;;10.07;4.17;;;22.30;49.50;;;;;;4993293;28;20390;-64
2022/05/11 05:04:38;;;;;;;8.95;3.95;;;22.30;50.70;;;;;;5000022;28;20483;-65
2022/05/11 05:07:04;;;;;;;8.30;3.80;;;22.40;51.40;;;;;;5013197;28;20860;-65
2022/05/11 05:09:29;;;;;;;9.20;3.90;;;22.40;51.40;;;;;;5011760;28;20404;-64
2022/05/11 05:11:56;;;;;;;8.03;3.83;;;22.40;51.40;;;;;;4996035;28;20430;-65
2022/05/11 05:14:22;;;;;;;7.30;3.63;;;22.40;51.30;;;;;;4988756;28;20409;-65
2022/05/11 05:16:48;;;;;;;6.35;4.15;;;22.50;51.60;;;;;;4988779;28;20750;-65
2022/05/11 05:19:14;;;;;;;7.75;3.85;;;22.50;51.50;;;;;;4993918;28;20406;-64
2022/05/11 05:21:40;;;;;;;6.70;3.90;;;22.50;51.30;;;;;;4993686;28;20814;-64
2022/05/11 05:24:07;;;;;;;7.50;3.70;;;22.60;51.30;;;;;;5008701;28;20411;-64
2022/05/11 05:26:32;;;;;;;5.55;3.63;;;22.60;51.50;;;;;;4993357;28;20396;-64
2022/05/11 05:31:42;;;;;;;6.53;3.70;;;22.60;51.60;;;;;;4993494;28;20468;-65
2022/05/11 05:34:08;;;;;;;8.80;4.00;;;22.60;51.60;;;;;;4993529;28;20425;-64
2022/05/11 05:36:36;;;;;;;5.82;3.67;;;22.60;51.70;;;;;;4992856;28;20917;-65
2022/05/11 05:39:03;;;;;;;4.72;3.42;;;22.70;51.60;;;;;;4977771;28;20784;-64
2022/05/11 05:41:30;;;;;;;4.55;3.33;;;22.70;51.70;;;;;;4973971;28;20390;-64
2022/05/11 05:43:56;;;;;;;5.53;3.50;;;22.60;50.70;;;;;;4973968;28;20419;-64
2022/05/11 05:46:24;;;;;;;8.07;3.55;;;22.60;51.20;;;;;;4973710;28;20416;-64
2022/05/11 05:48:49;;;;;;;6.80;3.47;;;22.60;51.50;;;;;;4991122;28;20387;-66
2022/05/11 05:51:18;;;;;;;6.55;3.50;;;22.60;50.50;;;;;;5007934;28;20422;-66
2022/05/11 05:53:45;;;;;;;6.77;3.60;;;22.60;50.30;;;;;;4988742;28;20870;-64
2022/05/11 05:56:12;;;;;;;5.82;3.40;;;22.60;50.20;;;;;;4992584;28;20501;-64
2022/05/11 05:58:39;;;;;;;5.68;3.58;;;22.60;50.30;;;;;;4992348;28;20871;-64
2022/05/11 06:01:05;;;;;;;6.28;3.38;;;22.60;50.20;;;;;;4992638;28;20445;-64
2022/05/11 06:03:33;;;;;;;5.55;3.50;;;22.60;50.20;;;;;;4992640;28;20406;-64
2022/05/11 06:05:59;;;;;;;5.20;3.20;;;22.50;50.20;;;;;;4992951;28;20403;-64
2022/05/11 06:08:24;;;;;;;4.75;3.30;;;22.50;50.30;;;;;;4992223;28;20878;-64
2022/05/11 06:10:53;;;;;;;5.90;3.27;;;22.50;50.20;;;;;;4992647;28;20421;-64
2022/05/11 06:13:22;;;;;;;4.43;3.30;;;22.50;50.10;;;;;;4991965;28;20497;-65
2022/05/11 06:15:49;;;;;;;4.55;3.53;;;22.60;50.10;;;;;;4991785;28;20416;-65
2022/05/11 06:18:15;;;;;;;6.50;3.22;;;22.50;50.10;;;;;;4992570;28;20425;-65
2022/05/11 06:20:41;;;;;;;5.00;3.53;;;22.60;50.10;;;;;;4992042;28;20425;-64
2022/05/11 06:23:07;;;;;;;4.43;3.30;;;22.60;50.10;;;;;;4973954;28;20427;-64
2022/05/11 06:25:34;;;;;;;5.33;3.60;;;22.60;50.10;;;;;;4973062;28;20396;-64
2022/05/11 06:28:00;;;;;;;3.65;3.25;;;22.60;50.00;;;;;;4972801;28;20745;-64
2022/05/11 06:30:28;;;;;;;6.38;3.60;;;22.60;49.90;;;;;;4984040;28;20902;-64
2022/05/11 06:32:55;;;;;;;4.97;3.20;;;22.60;49.90;;;;;;5007021;28;20899;-64
2022/05/11 06:35:21;;;;;;;4.43;3.03;;;22.60;49.80;;;;;;4992058;28;20944;-64
2022/05/11 06:37:48;;;;;;;3.80;3.10;;;22.70;49.90;;;;;;4992215;28;20395;-64
2022/05/11 06:40:15;;;;;;;4.90;3.30;;;22.70;49.50;;;;;;4992167;28;20390;-64
2022/05/11 06:42:41;;;;;;;3.97;3.20;;;22.70;49.50;;;;;;4991627;28;20398;-64
2022/05/11 06:45:08;;;;;;;4.47;3.22;;;22.70;49.50;;;;;;4992631;28;20379;-64
2022/05/11 06:47:33;;;;;;;5.82;3.42;;;22.70;49.60;;;;;;4992125;28;20391;-64
2022/05/11 06:49:59;;;;;;;5.65;3.38;;;22.70;49.50;;;;;;4992118;28;20409;-64
2022/05/11 06:52:25;;;;;;;5.00;3.13;;;22.70;49.30;;;;;;4991999;28;20394;-64
2022/05/11 07:00:21;;;;;;;5.23;3.50;;;22.70;49.60;;;;;;4980138;28;20489;-65
2022/05/11 07:02:47;;;;;;;3.95;3.28;;;22.70;49.70;;;;;;4972254;28;20400;-64
2022/05/11 07:05:12;;;;;;;5.77;3.20;;;22.70;49.60;;;;;;4972420;28;20392;-64
2022/05/11 07:07:41;;;;;;;4.88;3.30;;;22.70;49.80;;;;;;4972171;28;20393;-65
2022/05/11 07:10:07;;;;;;;3.60;3.08;;;22.70;49.60;;;;;;4972315;28;20451;-64
2022/05/11 07:12:35;;;;;;;4.25;3.22;;;22.70;49.50;;;;;;4976665;28;20403;-64
2022/05/11 07:15:04;;;;;;;4.40;3.00;;;22.70;49.30;;;;;;4991882;28;20897;-64
2022/05/11 07:17:56;;;;;;;4.50;3.25;;;22.70;49.40;;;;;;4991120;28;20397;-64
2022/05/11 07:20:28;;;;;;;3.65;3.10;;;22.70;49.30;;;;;;4991605;28;20382;-64
2022/05/11 07:22:55;;;;;;;4.28;3.13;;;22.80;49.50;;;;;;4991709;28;20884;-65
2022/05/11 07:25:24;;;;;;;3.70;3.15;;;22.70;49.50;;;;;;4991705;28;20398;-65
2022/05/11 07:27:51;;;;;;;4.07;3.20;;;22.80;49.50;;;;;;4993396;28;20409;-65
2022/05/11 07:30:23;;;;;;;4.22;3.15;;;22.80;49.50;;;;;;4995447;28;20910;-65
2022/05/11 07:32:49;;;;;;;3.97;3.17;;;22.80;49.40;;;;;;4993742;28;20410;-64
2022/05/11 07:35:15;;;;;;;5.50;3.30;;;22.80;49.50;;;;;;4995351;28;20506;-65
2022/05/11 07:37:41;;;;;;;3.97;3.17;;;22.80;49.50;;;;;;4995074;28;21092;-65
2022/05/11 07:40:09;;;;;;;5.20;3.10;;;22.80;49.90;;;;;;4995571;28;20401;-65
2022/05/11 07:42:35;;;;;;;4.80;3.15;;;22.80;49.80;;;;;;4994943;28;20457;-64
2022/05/11 07:45:01;;;;;;;4.68;3.17;;;22.80;49.90;;;;;;4995463;28;20403;-65
2022/05/11 07:47:27;;;;;;;4.95;3.08;;;22.80;49.90;;;;;;4995460;28;20397;-65
2022/05/11 07:49:53;;;;;;;3.58;3.17;;;22.80;49.90;;;;;;4995244;28;20485;-65
2022/05/11 07:52:18;;;;;;;4.40;3.47;;;22.80;49.90;;;;;;4995301;28;20870;-64
2022/05/11 07:54:44;;;;;;;4.78;3.40;;;22.80;49.90;;;;;;4994507;28;20397;-64
2022/05/11 07:59:56;;;;;;;4.47;3.15;;;22.80;49.80;;;;;;4995537;28;20506;-64
2022/05/11 08:02:27;;;;;;;4.22;3.20;;;22.90;49.90;;;;;;4994530;28;20398;-65
2022/05/11 08:05:04;;;;;;;4.53;3.17;;;22.80;49.90;;;;;;4994943;28;20402;-64
2022/05/11 08:07:39;;;;;;;3.95;3.10;;;22.90;49.90;;;;;;4994818;28;20426;-64
2022/05/11 08:10:05;;;;;;;4.20;3.20;;;22.90;49.80;;;;;;4994866;28;20798;-64
2022/05/11 08:12:31;;;;;;;5.72;3.15;;;22.90;49.80;;;;;;4993787;28;20441;-64
2022/05/11 08:14:57;;;;;;;6.47;3.27;;;22.90;49.60;;;;;;4994919;28;20405;-64
2022/05/11 08:17:25;;;;;;;3.72;3.30;;;22.90;50.30;;;;;;4994470;28;20413;-65
2022/05/11 08:19:51;;;;;;;3.78;3.22;;;22.90;49.40;;;;;;4989303;28;20412;-65
2022/05/11 08:22:16;;;;;;;3.73;3.30;;;22.90;49.30;;;;;;4982266;28;20437;-64
2022/05/11 08:24:42;;;;;;;5.43;3.22;;;22.90;49.60;;;;;;4993911;28;20394;-64
2022/05/11 08:27:10;;;;;;;5.03;3.60;;;22.90;49.30;;;;;;4994333;28;20445;-64
2022/05/11 08:35:12;;;;;;;5.90;3.45;;;23.00;51.00;;;;;;4971248;28;20402;-65
2022/05/11 08:37:38;;;;;;;5.75;3.40;;;23.00;50.60;;;;;;4994156;28;20460;-65
2022/05/11 08:40:05;;;;;;;5.45;3.50;;;23.00;50.50;;;;;;4988658;28;20831;-65
2022/05/11 08:42:32;;;;;;;6.90;3.58;;;23.00;50.70;;;;;;4974319;28;20406;-64
2022/05/11 08:45:01;;;;;;;6.43;3.45;;;23.00;50.70;;;;;;4989594;28;20567;-65
2022/05/11 08:47:43;;;;;;;7.07;3.60;;;23.00;50.70;;;;;;4974685;28;20389;-65
2022/05/11 08:50:16;;;;;;;6.38;3.45;;;23.00;50.30;;;;;;4974820;28;20423;-65
2022/05/11 08:52:50;;;;;;;5.97;3.47;;;23.10;50.30;;;;;;4974314;28;20396;-64
2022/05/11 08:55:37;;;;;;;5.40;3.50;;;23.10;50.30;;;;;;4987768;28;20394;-65
2022/05/11 08:58:15;;;;;;;5.78;3.50;;;23.10;49.90;;;;;;4974453;28;20926;-65
2022/05/11 09:00:43;;;;;;;5.15;3.53;;;23.10;49.70;;;;;;4979496;28;20430;-65
2022/05/11 09:03:38;;;;;;;5.00;3.40;;;23.00;49.60;;;;;;4979578;28;20699;-65
2022/05/11 09:06:06;;;;;;;5.07;3.22;;;23.10;49.50;;;;;;4981274;28;20407;-65
2022/05/11 09:08:37;;;;;;;5.38;3.30;;;23.10;49.50;;;;;;4982646;28;20477;-65
2022/05/11 09:11:05;;;;;;;5.25;3.50;;;23.10;49.30;;;;;;4981135;28;20432;-65
2022/05/11 09:13:30;;;;;;;3.97;3.40;;;23.10;49.20;;;;;;4984564;28;20398;-65
2022/05/11 09:16:01;;;;;;;4.10;3.20;;;23.10;49.20;;;;;;4981842;28;20916;-65
2022/05/11 09:18:30;;;;;;;3.75;3.25;;;23.00;49.10;;;;;;5008909;28;20396;-65
2022/05/11 09:20:57;;;;;;;4.18;3.20;;;23.00;49.00;;;;;;4978401;28;20412;-64
2022/05/11 09:23:36;;;;;;;3.90;3.20;;;23.00;48.90;;;;;;4978855;28;20897;-65
2022/05/11 09:26:16;;;;;;;4.15;3.10;;;23.00;48.80;;;;;;4987201;28;20407;-65
2022/05/11 09:28:47;;;;;;;3.77;3.13;;;23.00;48.80;;;;;;4977260;28;20482;-65
2022/05/11 09:31:24;;;;;;;5.37;3.10;;;23.10;48.90;;;;;;5010784;28;20456;-64
2022/05/11 09:33:59;;;;;;;4.88;3.00;;;23.10;48.80;;;;;;5013094;28;20385;-65
2022/05/11 09:36:37;;;;;;;3.53;2.78;;;23.00;48.70;;;;;;5011929;28;20396;-66
2022/05/11 09:39:13;;;;;;;3.63;3.20;;;23.00;48.70;;;;;;5011524;28;20472;-65
2022/05/11 09:41:40;;;;;;;4.32;2.92;;;23.00;48.70;;;;;;5012769;28;20385;-64
2022/05/11 09:44:19;;;;;;;3.40;2.90;;;23.00;48.70;;;;;;5012764;28;20915;-65
2022/05/11 09:46:46;;;;;;;3.73;3.37;;;23.10;48.70;;;;;;5023080;28;20406;-65
2022/05/11 09:49:27;;;;;;;3.80;3.05;;;23.00;48.70;;;;;;4992817;28;20797;-65
2022/05/11 09:51:56;;;;;;;4.35;3.47;;;23.00;48.70;;;;;;4992812;28;20449;-65
2022/05/11 09:54:33;;;;;;;4.40;3.10;;;23.00;48.50;;;;;;5009207;28;20759;-64
2022/05/11 09:57:20;;;;;;;3.50;3.05;;;23.00;48.40;;;;;;4986182;28;20408;-64
2022/05/11 09:59:49;;;;;;;3.63;3.13;;;23.00;48.50;;;;;;4982671;28;20458;-64
2022/05/11 10:02:32;;;;;;;3.65;3.00;;;23.00;48.50;;;;;;4992207;28;20766;-64
2022/05/11 10:05:04;;;;;;;3.17;2.85;;;23.00;48.50;;;;;;4992481;28;20432;-64
2022/05/11 10:07:38;;;;;;;4.10;2.95;;;23.00;48.40;;;;;;4992462;28;20900;-65
2022/05/11 10:10:26;;;;;;;4.00;2.90;;;23.00;48.40;;;;;;4992569;28;20493;-64
2022/05/11 10:12:56;;;;;;;3.33;3.03;;;23.00;48.40;;;;;;4992359;28;20472;-65
2022/05/11 10:24:06;;;;;;;5.17;2.90;;;23.00;48.40;;;;;;4987889;28;20921;-64
2022/05/11 10:26:56;;;;;;;4.10;3.30;;;23.10;48.60;;;;;;4979740;28;21040;-64
2022/05/11 10:29:29;;;;;;;3.53;2.88;;;23.10;48.90;;;;;;4982840;28;20386;-64
2022/05/11 10:32:05;;;;;;;3.90;3.05;;;23.10;48.90;;;;;;4991736;28;20444;-64
2022/05/11 10:35:06;;;;;;;3.53;3.00;;;23.10;48.70;;;;;;4992065;28;20423;-65
2022/05/11 10:37:45;;;;;;;3.47;2.90;;;23.10;48.50;;;;;;4992457;28;20402;-64
2022/05/11 10:40:32;;;;;;;4.10;2.95;;;23.10;48.40;;;;;;5007587;28;20406;-64
2022/05/11 10:43:42;;;;;;;4.85;3.13;;;23.10;48.60;;;;;;5007229;28;20407;-64
2022/05/11 10:46:17;;;;;;;6.00;3.13;;;23.10;49.20;;;;;;4992178;28;20489;-65
2022/05/11 10:49:14;;;;;;;4.63;3.00;;;23.20;49.40;;;;;;4993114;28;20401;-65
2022/05/11 10:51:55;;;;;;;9.90;3.67;;;23.10;49.20;;;;;;4987841;28;20506;-64
2022/05/11 10:55:03;;;;;;;17.55;12.55;;;23.20;50.50;;;;;;4991701;28;20422;-65
2022/05/11 10:57:56;;;;;;;27.80;21.92;;;23.30;57.10;;;;;;4925643;29;20410;-65
2022/05/11 11:00:24;;;;;;;18.65;16.63;;;23.40;63.00;;;;;;4997404;28;20413;-65
2022/05/11 11:03:08;;;;;;;15.73;12.13;;;23.50;62.90;;;;;;4995454;28;20406;-64
2022/05/11 11:05:40;;;;;;;12.63;11.38;;;23.50;62.40;;;;;;4988005;28;20447;-63
2022/05/11 11:08:24;;;;;;;8.57;7.40;;;23.60;62.90;;;;;;5010060;28;20457;-63
2022/05/11 11:11:00;;;;;;;7.72;6.30;;;23.60;59.50;;;;;;5002543;28;20429;-63
2022/05/11 11:13:51;;;;;;;8.07;6.80;;;23.60;57.80;;;;;;4986478;28;20477;-63
2022/05/11 11:16:16;;;;;;;9.55;7.88;;;23.60;60.40;;;;;;4981420;28;20416;-63
2022/05/11 11:18:46;;;;;;;12.87;10.00;;;23.70;61.00;;;;;;4971756;28;20388;-62
2022/05/11 11:21:13;;;;;;;11.27;9.50;;;23.70;61.80;;;;;;4971087;28;20412;-62
2022/05/11 11:23:41;;;;;;;13.50;11.53;;;23.70;61.80;;;;;;4972285;28;20479;-62
2022/05/11 11:26:13;;;;;;;14.02;12.68;;;23.70;62.70;;;;;;4972616;28;20396;-63
2022/05/11 11:28:42;;;;;;;9.85;8.85;;;23.80;63.00;;;;;;4972252;28;20491;-63
2022/05/11 11:31:12;;;;;;;8.27;6.28;;;23.80;62.00;;;;;;4971149;28;20431;-63
2022/05/11 11:34:03;;;;;;;8.90;5.70;;;23.80;58.90;;;;;;4972070;28;20400;-63
2022/05/11 11:36:32;;;;;;;8.02;4.88;;;23.80;57.60;;;;;;4975925;28;20397;-65
2022/05/11 11:39:24;;;;;;;7.85;4.90;;;23.80;56.60;;;;;;4990710;28;20874;-63
2022/05/11 11:41:49;;;;;;;6.50;4.40;;;23.80;55.50;;;;;;4958565;28;20417;-63
2022/05/11 11:44:22;;;;;;;4.67;4.20;;;23.70;55.00;;;;;;4996979;28;20398;-63
2022/05/11 11:46:48;;;;;;;5.03;3.63;;;23.70;54.30;;;;;;4983333;28;20392;-64
2022/05/11 11:49:16;;;;;;;5.50;3.53;;;23.70;53.60;;;;;;4980974;28;20759;-64
2022/05/11 11:51:52;;;;;;;5.43;3.70;;;23.70;53.20;;;;;;4979163;28;20466;-63
2022/05/11 11:54:36;;;;;;;6.90;3.70;;;23.70;52.60;;;;;;4983923;28;20421;-64
2022/05/11 11:57:04;;;;;;;4.82;3.70;;;23.70;52.70;;;;;;4985152;28;20417;-64
2022/05/11 11:59:30;;;;;;;8.30;3.80;;;23.70;52.10;;;;;;4984055;28;20396;-64
2022/05/11 12:02:16;;;;;;;5.65;3.80;;;23.70;52.60;;;;;;4982130;28;20403;-63
2022/05/11 12:04:46;;;;;;;4.90;3.58;;;23.70;51.60;;;;;;4981536;28;20455;-64
2022/05/11 12:15:44;;;;;;;4.13;3.30;;;23.70;50.90;;;;;;4987003;28;20855;-64
2022/05/11 12:18:29;;;;;;;3.20;2.90;;;23.70;50.70;;;;;;4986093;28;20416;-64
2022/05/11 12:20:55;;;;;;;3.70;3.03;;;23.70;50.60;;;;;;4984335;28;20397;-64
2022/05/11 12:23:26;;;;;;;4.07;3.17;;;23.70;50.60;;;;;;4987799;28;20410;-63
2022/05/11 12:26:02;;;;;;;4.40;3.00;;;23.70;50.50;;;;;;4984195;28;20822;-64
2022/05/11 12:28:32;;;;;;;4.30;3.00;;;23.70;50.40;;;;;;4982915;28;20414;-64
2022/05/11 12:30:58;;;;;;;5.00;3.33;;;23.70;50.20;;;;;;4983389;28;20428;-64
2022/05/11 12:33:28;;;;;;;4.28;3.17;;;23.70;50.20;;;;;;4984827;28;20442;-64
2022/05/11 12:35:55;;;;;;;4.32;3.00;;;23.70;50.00;;;;;;4983472;28;20761;-64
2022/05/11 12:38:37;;;;;;;4.80;3.40;;;23.70;49.80;;;;;;4984140;28;20386;-64
2022/05/11 12:41:10;;;;;;;4.28;3.20;;;23.70;50.10;;;;;;4984130;28;20482;-64
2022/05/11 12:43:40;;;;;;;4.90;3.33;;;23.70;50.10;;;;;;4983476;28;20951;-64
2022/05/11 12:46:15;;;;;;;3.20;2.80;;;23.80;49.90;;;;;;4984355;28;20743;-64
2022/05/11 12:48:52;;;;;;;3.88;2.92;;;23.70;49.90;;;;;;4983938;28;20881;-64
2022/05/11 12:51:29;;;;;;;3.97;3.03;;;23.70;49.60;;;;;;4986578;28;20512;-65
2022/05/11 12:53:58;;;;;;;3.88;3.20;;;23.70;49.40;;;;;;4999007;28;20969;-64
2022/05/11 12:56:27;;;;;;;3.40;3.10;;;23.70;49.40;;;;;;4984022;28;20398;-64
2022/05/11 12:58:59;;;;;;;3.50;3.20;;;23.70;49.10;;;;;;4982855;28;20389;-64
2022/05/11 13:01:27;;;;;;;3.33;3.00;;;23.70;49.20;;;;;;4984118;28;20441;-65
2022/05/11 13:03:55;;;;;;;4.18;3.08;;;23.70;49.10;;;;;;4983066;28;20415;-64
2022/05/11 13:06:21;;;;;;;3.30;3.00;;;23.80;49.10;;;;;;4981949;28;20407;-65
2022/05/11 13:08:49;;;;;;;3.70;2.93;;;23.80;49.10;;;;;;4998145;28;20751;-65
2022/05/11 13:11:17;;;;;;;3.65;2.80;;;23.70;49.00;;;;;;4983231;28;20420;-64
2022/05/11 13:13:45;;;;;;;3.55;3.25;;;23.80;49.00;;;;;;4984496;28;20398;-64
2022/05/11 13:16:18;;;;;;;3.30;3.00;;;23.80;49.00;;;;;;4987892;28;20457;-64
2022/05/11 13:18:44;;;;;;;3.35;3.05;;;23.70;48.80;;;;;;4976599;28;20902;-64
2022/05/11 13:21:10;;;;;;;3.30;2.90;;;23.70;48.90;;;;;;4976622;28;20397;-64
2022/05/11 13:23:49;;;;;;;3.53;3.10;;;23.80;48.90;;;;;;4978895;28;21105;-64
2022/05/11 13:26:40;;;;;;;3.53;3.08;;;23.80;49.00;;;;;;4987605;28;20408;-64
2022/05/11 13:29:23;;;;;;;3.47;2.97;;;23.70;48.90;;;;;;4986414;28;20448;-64
2022/05/11 13:32:03;;;;;;;3.30;3.00;;;23.70;48.80;;;;;;4991342;28;20526;-65
2022/05/11 13:34:41;;;;;;;3.45;2.97;;;23.70;48.90;;;;;;4992216;28;20387;-64
2022/05/11 13:37:25;;;;;;;3.25;2.95;;;23.70;49.00;;;;;;4992230;28;20445;-64
2022/05/11 13:39:51;;;;;;;3.65;3.17;;;23.70;48.70;;;;;;4992004;28;20391;-64